createdAt,value
2024-05-09T00:01:53.601Z,8.70
2024-05-09T00:04:42.832Z,8.70
2024-05-09T00:07:34.652Z,8.70
2024-05-09T00:10:32.611Z,8.70
2024-05-09T00:13:24.366Z,8.70
2024-05-09T00:16:13.363Z,8.70
2024-05-09T00:19:02.400Z,8.60
2024-05-09T00:21:50.913Z,8.60
2024-05-09T00:24:42.055Z,8.60
2024-05-09T00:27:30.711Z,8.60
2024-05-09T00:30:27.948Z,8.60
2024-05-09T00:33:21.798Z,8.60
2024-05-09T00:36:10.442Z,8.60
2024-05-09T00:38:59.168Z,8.60
2024-05-09T00:41:50.864Z,8.60
2024-05-09T00:44:39.534Z,8.60
2024-05-09T00:47:28.874Z,8.60
2024-05-09T00:50:22.773Z,8.50
2024-05-09T00:53:21.464Z,8.50
2024-05-09T00:56:12.460Z,8.50
2024-05-09T00:59:04.750Z,8.50
2024-05-09T01:01:53.737Z,8.50
2024-05-09T01:04:42.794Z,8.50
2024-05-09T01:07:31.699Z,8.60
2024-05-09T01:10:27.716Z,8.60
2024-05-09T01:13:20.702Z,8.60
2024-05-09T01:16:12.125Z,8.60
2024-05-09T01:19:01.799Z,8.60
2024-05-09T01:21:50.653Z,8.70
2024-05-09T01:24:42.039Z,8.70
2024-05-09T01:27:30.671Z,8.70
2024-05-09T01:30:24.359Z,8.70
2024-05-09T01:33:16.812Z,8.60
2024-05-09T01:36:05.551Z,8.60
2024-05-09T01:38:54.138Z,8.70
2024-05-09T01:41:45.858Z,8.70
2024-05-09T01:44:34.799Z,8.70
2024-05-09T01:47:23.844Z,8.60
2024-05-09T01:50:16.356Z,8.70
2024-05-09T01:53:05.065Z,8.70
2024-05-09T01:55:53.485Z,8.70
2024-05-09T01:58:46.269Z,8.70
2024-05-09T02:01:55.553Z,8.70
2024-05-09T02:04:43.673Z,8.70
2024-05-09T02:07:32.271Z,8.60
2024-05-09T02:10:26.335Z,8.60
2024-05-09T02:13:21.023Z,8.60
2024-05-09T02:16:16.535Z,8.70
2024-05-09T02:19:05.678Z,8.60
2024-05-09T02:21:54.503Z,8.70
2024-05-09T02:24:42.966Z,8.70
2024-05-09T02:27:31.836Z,8.70
2024-05-09T02:30:30.001Z,8.70
2024-05-09T02:33:29.507Z,8.60
2024-05-09T02:36:18.102Z,8.60
2024-05-09T02:39:04.436Z,8.70
2024-05-09T02:41:53.090Z,8.70
2024-05-09T02:44:39.398Z,8.70
2024-05-09T02:47:29.362Z,8.70
2024-05-09T02:50:26.074Z,8.70
2024-05-09T02:53:19.866Z,8.70
2024-05-09T02:56:06.519Z,8.70
2024-05-09T02:58:56.868Z,8.70
2024-05-09T03:01:42.938Z,8.70
2024-05-09T03:04:31.870Z,8.70
2024-05-09T03:07:20.621Z,8.70
2024-05-09T03:10:18.265Z,8.70
2024-05-09T03:13:12.225Z,8.70
2024-05-09T03:16:00.191Z,8.70
2024-05-09T03:18:49.263Z,8.80
2024-05-09T03:21:39.474Z,8.70
2024-05-09T03:24:30.683Z,8.80
2024-05-09T03:27:16.591Z,8.80
2024-05-09T03:30:07.371Z,8.70
2024-05-09T03:32:53.762Z,8.70
2024-05-09T03:35:43.623Z,8.80
2024-05-09T03:38:32.639Z,8.80
2024-05-09T03:41:24.879Z,8.80
2024-05-09T03:44:13.531Z,8.80
2024-05-09T03:46:59.368Z,8.80
2024-05-09T03:49:48.206Z,8.80
2024-05-09T03:52:34.535Z,8.80
2024-05-09T03:55:23.263Z,8.70
2024-05-09T03:58:14.508Z,8.70
2024-05-09T04:01:03.288Z,8.70
2024-05-09T04:03:49.668Z,8.70
2024-05-09T04:06:38.271Z,8.80
2024-05-09T04:09:24.309Z,8.80
2024-05-09T04:12:13.654Z,8.80
2024-05-09T04:15:02.966Z,8.80
2024-05-09T04:17:52.135Z,8.80
2024-05-09T04:20:40.572Z,8.80
2024-05-09T04:23:30.334Z,8.80
2024-05-09T04:26:16.817Z,8.80
2024-05-09T04:29:05.632Z,8.90
2024-05-09T04:31:54.517Z,8.80
2024-05-09T04:34:42.978Z,8.90
2024-05-09T04:37:30.508Z,8.90
2024-05-09T04:40:28.099Z,8.90
2024-05-09T04:43:20.575Z,8.90
2024-05-09T04:46:09.123Z,8.90
2024-05-09T04:48:58.100Z,9.00
2024-05-09T04:51:46.577Z,9.00
2024-05-09T04:54:36.306Z,8.90
2024-05-09T04:57:25.186Z,8.90
2024-05-09T05:00:14.817Z,8.90
2024-05-09T05:03:13.821Z,8.90
2024-05-09T05:06:04.700Z,8.90
2024-05-09T05:08:53.293Z,8.90
2024-05-09T05:11:42.323Z,8.90
2024-05-09T05:14:28.609Z,8.80
2024-05-09T05:17:17.283Z,8.80
2024-05-09T05:20:04.834Z,8.80
2024-05-09T05:22:57.127Z,8.90
2024-05-09T05:25:43.535Z,9.00
2024-05-09T05:28:32.379Z,9.00
2024-05-09T05:31:18.471Z,9.10
2024-05-09T05:34:07.384Z,9.10
2024-05-09T05:36:53.339Z,9.10
2024-05-09T05:39:44.941Z,9.20
2024-05-09T05:42:30.914Z,9.30
2024-05-09T05:45:19.633Z,9.30
2024-05-09T05:48:07.495Z,9.30
2024-05-09T05:50:56.716Z,9.30
2024-05-09T05:53:43.000Z,9.30
2024-05-09T05:56:34.189Z,9.40
2024-05-09T05:59:20.345Z,9.60
2024-05-09T06:02:09.699Z,9.70
2024-05-09T06:04:55.936Z,9.90
2024-05-09T06:07:44.604Z,10.10
2024-05-09T06:10:37.805Z,10.10
2024-05-09T06:13:31.482Z,10.10
2024-05-09T06:16:17.371Z,10.10
2024-05-09T06:19:06.406Z,10.10
2024-05-09T06:21:52.740Z,10.10
2024-05-09T06:24:41.517Z,10.00
2024-05-09T06:27:27.640Z,9.90
2024-05-09T06:30:29.427Z,9.90
2024-05-09T06:33:21.300Z,10.00
2024-05-09T06:36:10.528Z,9.90
2024-05-09T06:38:56.797Z,9.80
2024-05-09T06:41:45.425Z,9.80
2024-05-09T06:44:31.378Z,9.80
2024-05-09T06:47:23.150Z,9.90
2024-05-09T06:50:19.576Z,9.80
2024-05-09T06:53:12.233Z,9.80
2024-05-09T06:55:58.201Z,9.80
2024-05-09T06:58:47.207Z,9.80
2024-05-09T07:01:33.184Z,9.80
2024-05-09T07:04:24.710Z,9.90
2024-05-09T07:07:10.889Z,9.90
2024-05-09T07:09:59.921Z,10.00
2024-05-09T07:12:46.261Z,9.90
2024-05-09T07:15:35.153Z,9.90
2024-05-09T07:18:21.511Z,9.90
2024-05-09T07:21:15.922Z,9.80
2024-05-09T07:24:04.495Z,9.80
2024-05-09T07:26:50.464Z,9.90
2024-05-09T07:29:39.113Z,10.00
2024-05-09T07:32:25.519Z,10.10
2024-05-09T07:35:14.400Z,10.20
2024-05-09T07:38:03.260Z,10.20
2024-05-09T07:40:51.986Z,10.30
2024-05-09T07:43:37.941Z,10.30
2024-05-09T07:50:55.899Z,10.30
2024-05-09T07:55:21.485Z,10.50
2024-05-09T07:58:10.193Z,10.80
2024-05-09T08:00:56.469Z,11.00
2024-05-09T08:03:45.228Z,11.30
2024-05-09T08:06:32.428Z,11.50
2024-05-09T08:09:21.816Z,11.80
2024-05-09T08:12:12.976Z,11.90
2024-05-09T08:15:01.614Z,12.00
2024-05-09T08:17:47.879Z,12.00
2024-05-09T08:20:36.686Z,11.80
2024-05-09T08:23:23.886Z,11.80
2024-05-09T08:26:12.720Z,11.90
2024-05-09T08:29:01.492Z,12.00
2024-05-09T08:31:50.516Z,12.00
2024-05-09T08:34:36.777Z,12.10
2024-05-09T08:37:29.449Z,12.20
2024-05-09T08:40:27.285Z,12.20
2024-05-09T08:43:22.075Z,12.40
2024-05-09T08:46:15.636Z,12.50
2024-05-09T08:49:03.163Z,12.70
2024-05-09T08:51:52.342Z,12.70
2024-05-09T08:54:38.335Z,12.70
2024-05-09T08:57:28.970Z,12.90
2024-05-09T09:00:21.703Z,13.00
2024-05-09T09:03:22.054Z,13.00
2024-05-09T09:06:15.293Z,12.90
2024-05-09T09:09:06.123Z,13.00
2024-05-09T09:11:52.453Z,13.00
2024-05-09T09:14:40.823Z,13.10
2024-05-09T09:17:26.852Z,13.30
2024-05-09T09:20:25.942Z,13.50
2024-05-09T09:23:15.595Z,13.40
2024-05-09T09:26:04.190Z,13.30
2024-05-09T09:28:50.332Z,13.40
2024-05-09T09:31:39.684Z,13.30
2024-05-09T09:34:28.076Z,13.50
2024-05-09T09:37:24.473Z,13.90
2024-05-09T09:40:15.604Z,14.20
2024-05-09T09:43:09.619Z,14.20
2024-05-09T09:45:59.909Z,14.20
2024-05-09T09:48:49.966Z,14.30
2024-05-09T09:51:36.547Z,14.40
2024-05-09T09:54:29.302Z,14.50
2024-05-09T09:57:19.497Z,14.40
2024-05-09T10:00:11.853Z,14.40
2024-05-09T10:03:00.416Z,14.20
2024-05-09T10:05:49.548Z,14.00
2024-05-09T10:08:36.547Z,14.00
2024-05-09T10:11:28.513Z,14.70
2024-05-09T10:14:20.176Z,15.20
2024-05-09T10:17:09.248Z,15.80
2024-05-09T10:20:14.377Z,15.90
2024-05-09T10:23:24.444Z,15.40
2024-05-09T10:26:10.665Z,15.20
2024-05-09T10:29:03.364Z,15.00
2024-05-09T10:31:49.863Z,14.90
2024-05-09T10:34:38.577Z,15.00
2024-05-09T10:37:25.512Z,14.80
2024-05-09T10:40:25.924Z,15.00
2024-05-09T10:43:19.523Z,15.60
2024-05-09T10:46:12.104Z,16.30
2024-05-09T10:49:00.338Z,16.10
2024-05-09T10:51:52.100Z,16.10
2024-05-09T10:54:38.551Z,16.00
2024-05-09T10:57:27.489Z,15.40
2024-05-09T11:00:26.892Z,15.20
2024-05-09T11:03:19.461Z,15.30
2024-05-09T11:06:09.925Z,15.30
2024-05-09T11:08:57.267Z,15.30
2024-05-09T11:11:46.139Z,15.30
2024-05-09T11:14:32.098Z,15.50
2024-05-09T11:17:21.165Z,15.90
2024-05-09T11:20:16.757Z,16.20
2024-05-09T11:23:09.159Z,16.10
2024-05-09T11:25:57.244Z,16.20
2024-05-09T11:28:47.840Z,16.10
2024-05-09T11:31:44.739Z,15.60
2024-05-09T11:34:33.566Z,15.60
2024-05-09T11:37:22.245Z,15.60
2024-05-09T11:40:20.726Z,15.70
2024-05-09T11:43:11.340Z,15.80
2024-05-09T11:46:00.439Z,16.00
2024-05-09T11:48:46.501Z,16.10
2024-05-09T11:51:35.758Z,16.20
2024-05-09T11:54:27.265Z,16.20
2024-05-09T11:57:13.506Z,16.30
2024-05-09T12:00:02.325Z,16.90
2024-05-09T12:02:48.203Z,17.10
2024-05-09T12:05:37.160Z,17.00
2024-05-09T12:08:23.650Z,16.60
2024-05-09T12:11:16.644Z,16.40
2024-05-09T12:14:05.247Z,16.10
2024-05-09T12:16:51.584Z,16.10
2024-05-09T12:19:40.299Z,16.10
2024-05-09T12:22:26.528Z,16.20
2024-05-09T12:25:15.303Z,16.30
2024-05-09T12:28:04.385Z,16.60
2024-05-09T12:30:53.129Z,16.70
2024-05-09T12:33:39.409Z,16.80
2024-05-09T12:36:28.482Z,16.40
2024-05-09T12:39:14.395Z,16.50
2024-05-09T12:42:03.054Z,16.10
2024-05-09T12:44:51.752Z,15.90
2024-05-09T12:47:40.327Z,15.90
2024-05-09T12:50:32.416Z,16.00
2024-05-09T12:53:22.686Z,16.30
2024-05-09T12:56:09.554Z,16.30
2024-05-09T12:58:58.246Z,16.40
2024-05-09T13:01:47.104Z,16.50
2024-05-09T13:04:35.888Z,16.60
2024-05-09T13:07:22.262Z,16.50
2024-05-09T13:10:16.166Z,16.50
2024-05-09T13:13:05.855Z,16.80
2024-05-09T13:15:54.588Z,16.70
2024-05-09T13:18:44.307Z,16.80
2024-05-09T13:21:32.825Z,16.80
2024-05-09T13:24:18.956Z,16.90
2024-05-09T13:27:07.702Z,17.10
2024-05-09T13:29:57.319Z,17.40
2024-05-09T13:32:46.367Z,17.60
2024-05-09T13:35:36.025Z,17.50
2024-05-09T13:38:24.965Z,17.60
2024-05-09T13:41:11.720Z,17.60
2024-05-09T13:44:00.927Z,17.60
2024-05-09T13:46:47.367Z,17.60
2024-05-09T13:49:36.180Z,17.40
2024-05-09T13:52:26.343Z,17.20
2024-05-09T13:55:15.502Z,17.20
2024-05-09T13:58:01.954Z,17.20
2024-05-09T14:00:50.906Z,17.40
2024-05-09T14:03:37.019Z,17.50
2024-05-09T14:06:25.954Z,17.50
2024-05-09T14:09:15.171Z,17.60
2024-05-09T14:12:03.686Z,17.40
2024-05-09T14:14:49.802Z,17.00
2024-05-09T14:17:38.787Z,16.80
2024-05-09T14:20:30.993Z,16.90
2024-05-09T14:23:21.171Z,16.80
2024-05-09T14:26:10.060Z,16.90
2024-05-09T14:28:58.653Z,17.40
2024-05-09T14:31:44.688Z,17.70
2024-05-09T14:34:33.991Z,18.10
2024-05-09T14:37:20.374Z,18.30
2024-05-09T14:40:21.548Z,17.70
2024-05-09T14:43:18.575Z,17.30
2024-05-09T14:46:07.661Z,17.10
2024-05-09T14:48:54.193Z,17.00
2024-05-09T14:51:45.216Z,17.10
2024-05-09T14:54:31.839Z,17.20
2024-05-09T14:57:20.676Z,17.40
2024-05-09T15:00:17.468Z,17.20
2024-05-09T15:03:14.190Z,17.30
2024-05-09T15:06:03.202Z,17.20
2024-05-09T15:08:54.977Z,17.20
2024-05-09T15:11:44.076Z,16.90
2024-05-09T15:14:29.866Z,17.00
2024-05-09T15:17:21.621Z,16.90
2024-05-09T15:20:09.770Z,17.00
2024-05-09T15:23:01.351Z,17.00
2024-05-09T15:25:47.484Z,17.00
2024-05-09T15:28:36.761Z,16.90
2024-05-09T15:31:22.754Z,16.80
2024-05-09T15:34:13.947Z,16.50
2024-05-09T15:37:00.307Z,16.30
2024-05-09T15:39:49.637Z,16.00
2024-05-09T15:42:35.770Z,15.90
2024-05-09T15:45:24.454Z,16.10
2024-05-09T15:48:11.614Z,16.00
2024-05-09T15:51:03.091Z,15.90
2024-05-09T15:53:49.054Z,15.90
2024-05-09T15:56:37.815Z,16.00
2024-05-09T15:59:23.832Z,15.80
2024-05-09T16:02:13.385Z,15.80
2024-05-09T16:04:59.500Z,16.10
2024-05-09T16:07:50.717Z,16.20
2024-05-09T16:10:42.437Z,16.20
2024-05-09T16:13:32.952Z,16.30
2024-05-09T16:16:19.214Z,16.20
2024-05-09T16:19:09.873Z,16.20
2024-05-09T16:21:56.981Z,16.20
2024-05-09T16:24:48.539Z,16.20
2024-05-09T16:27:34.438Z,16.20
2024-05-09T16:30:31.447Z,16.20
2024-05-09T16:33:23.725Z,16.10
2024-05-09T16:36:12.592Z,16.20
2024-05-09T16:38:59.019Z,16.20
2024-05-09T16:41:50.408Z,16.00
2024-05-09T16:44:36.444Z,16.10
2024-05-09T16:47:25.648Z,16.00
2024-05-09T16:50:15.810Z,15.90
2024-05-09T16:53:08.714Z,15.90
2024-05-09T16:55:54.985Z,15.90
2024-05-09T16:58:46.519Z,15.80
2024-05-09T17:01:32.712Z,15.70
2024-05-09T17:04:21.425Z,15.60
2024-05-09T17:07:07.551Z,15.50
2024-05-09T17:09:56.482Z,15.40
2024-05-09T17:12:45.413Z,15.40
2024-05-09T17:15:37.498Z,15.30
2024-05-09T17:18:26.542Z,15.10
2024-05-09T17:21:12.460Z,15.20
2024-05-09T17:24:01.354Z,15.30
2024-05-09T17:26:47.508Z,15.40
2024-05-09T17:29:37.551Z,15.60
2024-05-09T17:32:28.741Z,15.60
2024-05-09T17:35:15.485Z,15.60
2024-05-09T17:38:04.202Z,15.40
2024-05-09T17:40:50.979Z,15.40
2024-05-09T17:43:39.720Z,15.30
2024-05-09T17:46:28.874Z,15.30
2024-05-09T17:49:17.828Z,15.20
2024-05-09T17:52:06.632Z,15.00
2024-05-09T17:54:52.708Z,15.00
2024-05-09T17:57:41.571Z,14.90
2024-05-09T18:00:37.175Z,14.80
2024-05-09T18:03:29.026Z,14.70
2024-05-09T18:06:18.115Z,14.60
2024-05-09T18:09:06.915Z,14.50
2024-05-09T18:11:55.545Z,14.50
2024-05-09T18:14:41.642Z,14.50
2024-05-09T18:17:31.016Z,14.40
2024-05-09T18:20:24.237Z,14.40
2024-05-09T18:23:24.670Z,14.40
2024-05-09T18:26:13.614Z,14.30
2024-05-09T18:28:59.579Z,14.30
2024-05-09T18:31:48.464Z,14.20
2024-05-09T18:34:34.639Z,14.10
2024-05-09T18:37:23.666Z,14.00
2024-05-09T18:40:20.911Z,14.00
2024-05-09T18:43:16.968Z,13.90
2024-05-09T18:46:04.163Z,13.80
2024-05-09T18:48:53.289Z,13.70
2024-05-09T18:51:39.224Z,13.60
2024-05-09T18:54:28.061Z,13.40
2024-05-09T18:57:16.791Z,13.30
2024-05-09T19:00:05.756Z,13.20
2024-05-09T19:02:51.980Z,13.10
2024-05-09T19:05:41.684Z,13.00
2024-05-09T19:08:31.586Z,12.90
2024-05-09T19:11:17.983Z,12.80
2024-05-09T19:14:09.333Z,12.70
2024-05-09T19:16:55.510Z,12.70
2024-05-09T19:19:44.400Z,12.50
2024-05-09T19:22:30.638Z,12.40
2024-05-09T19:25:19.395Z,12.20
2024-05-09T19:28:06.247Z,12.00
2024-05-09T19:30:57.466Z,11.90
2024-05-09T19:33:43.655Z,11.80
2024-05-09T19:36:32.613Z,11.70
2024-05-09T19:39:21.338Z,11.50
2024-05-09T19:42:10.159Z,11.40
2024-05-09T19:44:56.160Z,11.20
2024-05-09T19:47:47.716Z,11.00
2024-05-09T19:50:41.209Z,10.90
2024-05-09T19:53:33.485Z,10.80
2024-05-09T19:56:19.532Z,10.70
2024-05-09T19:59:08.279Z,10.60
2024-05-09T20:01:54.612Z,10.50
2024-05-09T20:04:47.885Z,10.50
2024-05-09T20:07:36.154Z,10.40
2024-05-09T20:10:31.122Z,10.20
2024-05-09T20:13:21.913Z,10.10
2024-05-09T20:16:08.349Z,10.00
2024-05-09T20:18:57.563Z,9.90
2024-05-09T20:21:46.439Z,9.80
2024-05-09T20:24:35.303Z,9.80
2024-05-09T20:27:21.495Z,9.70
2024-05-09T20:30:14.429Z,9.60
2024-05-09T20:33:04.548Z,9.50
2024-05-09T20:35:55.621Z,9.50
2024-05-09T20:38:44.449Z,9.30
2024-05-09T20:41:35.184Z,9.20
2024-05-09T20:44:21.912Z,9.10
2024-05-09T20:47:12.167Z,8.90
2024-05-09T20:49:58.058Z,8.80
2024-05-09T20:52:46.727Z,8.80
2024-05-09T20:55:35.539Z,8.70
2024-05-09T20:58:24.410Z,8.60
2024-05-09T21:01:10.695Z,8.60
2024-05-09T21:04:01.321Z,8.50
2024-05-09T21:06:47.676Z,8.40
2024-05-09T21:09:36.352Z,8.40
2024-05-09T21:12:25.357Z,8.20
2024-05-09T21:15:14.194Z,8.10
2024-05-09T21:18:00.406Z,8.10
2024-05-09T21:20:49.317Z,8.00
2024-05-09T21:23:36.221Z,8.00
2024-05-09T21:26:25.787Z,7.90
2024-05-09T21:29:14.494Z,7.80
2024-05-09T21:32:03.358Z,7.80
2024-05-09T21:34:49.632Z,7.70
2024-05-09T21:37:38.861Z,7.60
2024-05-09T21:40:34.109Z,7.50
2024-05-09T21:43:26.854Z,7.40
2024-05-09T21:46:15.474Z,7.40
2024-05-09T21:49:04.444Z,7.30
2024-05-09T21:51:50.613Z,7.20
2024-05-09T21:54:39.266Z,7.20
2024-05-09T21:57:25.298Z,7.10
2024-05-09T22:00:28.517Z,7.10
2024-05-09T22:03:26.490Z,7.00
2024-05-09T22:06:12.929Z,6.90
2024-05-09T22:09:05.083Z,6.80
2024-05-09T22:11:52.944Z,6.90
2024-05-09T22:14:42.923Z,6.80
2024-05-09T22:17:29.353Z,6.80
2024-05-09T22:20:28.821Z,6.70
2024-05-09T22:23:22.060Z,6.60
2024-05-09T22:26:11.016Z,6.60
2024-05-09T22:28:57.299Z,6.50
2024-05-09T22:31:46.050Z,6.50
2024-05-09T22:34:32.239Z,6.40
2024-05-09T22:37:23.478Z,6.40
2024-05-09T22:42:59.467Z,6.30
2024-05-09T22:45:45.417Z,6.30
2024-05-09T22:48:34.493Z,6.20
2024-05-09T22:51:20.613Z,6.20
2024-05-09T22:54:12.087Z,6.10
2024-05-09T22:56:57.969Z,6.00
2024-05-09T22:59:46.882Z,6.00
2024-05-09T23:02:33.267Z,5.90
2024-05-09T23:05:22.425Z,5.90
2024-05-09T23:08:08.982Z,5.90
2024-05-09T23:11:00.664Z,5.80
2024-05-09T23:13:46.942Z,5.80
2024-05-09T23:16:36.002Z,5.70
2024-05-09T23:19:22.084Z,5.70
2024-05-09T23:22:11.145Z,5.60
2024-05-09T23:24:58.020Z,5.50
2024-05-09T23:27:49.257Z,5.50
2024-05-09T23:30:38.907Z,5.50
2024-05-09T23:33:29.269Z,5.50
2024-05-09T23:36:15.343Z,5.40
2024-05-09T23:39:04.227Z,5.40
2024-05-09T23:41:50.577Z,5.40
2024-05-09T23:44:42.224Z,5.30
2024-05-09T23:47:28.164Z,5.30
2024-05-09T23:50:23.893Z,5.20
2024-05-09T23:53:17.454Z,5.20
2024-05-09T23:56:06.123Z,5.20
2024-05-09T23:58:54.814Z,5.20
